sensor_id;sensor_type;location;lat;lon;timestamp;P1;durP1;ratioP1;P2;durP2;ratioP2
19131;SDS011;9698;51.976;7.570;2023-08-31T00:00:15;22.60;;;6.97;;
19131;SDS011;9698;51.976;7.570;2023-08-31T00:02:43;19.43;;;5.97;;
19131;SDS011;9698;51.976;7.570;2023-08-31T00:05:12;11.17;;;4.80;;
19131;SDS011;9698;51.976;7.570;2023-08-31T00:07:40;10.83;;;5.17;;
19131;SDS011;9698;51.976;7.570;2023-08-31T00:10:08;19.67;;;6.70;;
19131;SDS011;9698;51.976;7.570;2023-08-31T00:12:37;17.90;;;6.50;;
19131;SDS011;9698;51.976;7.570;2023-08-31T00:15:07;8.37;;;4.53;;
19131;SDS011;9698;51.976;7.570;2023-08-31T00:17:36;17.93;;;5.77;;
19131;SDS011;9698;51.976;7.570;2023-08-31T00:20:05;5.47;;;3.67;;
19131;SDS011;9698;51.976;7.570;2023-08-31T00:22:38;16.90;;;6.40;;
19131;SDS011;9698;51.976;7.570;2023-08-31T00:25:06;9.10;;;3.80;;
19131;SDS011;9698;51.976;7.570;2023-08-31T00:27:34;21.27;;;7.03;;
19131;SDS011;9698;51.976;7.570;2023-08-31T00:30:04;8.37;;;4.30;;
19131;SDS011;9698;51.976;7.570;2023-08-31T00:32:34;21.17;;;7.63;;
19131;SDS011;9698;51.976;7.570;2023-08-31T00:35:02;12.30;;;5.17;;
19131;SDS011;9698;51.976;7.570;2023-08-31T00:37:30;15.50;;;6.30;;
19131;SDS011;9698;51.976;7.570;2023-08-31T00:39:58;10.67;;;4.73;;
19131;SDS011;9698;51.976;7.570;2023-08-31T00:42:26;15.60;;;6.17;;
19131;SDS011;9698;51.976;7.570;2023-08-31T00:44:55;9.07;;;4.43;;
19131;SDS011;9698;51.976;7.570;2023-08-31T00:47:23;16.27;;;6.10;;
19131;SDS011;9698;51.976;7.570;2023-08-31T00:49:52;8.67;;;4.53;;
19131;SDS011;9698;51.976;7.570;2023-08-31T00:52:20;12.90;;;5.73;;
19131;SDS011;9698;51.976;7.570;2023-08-31T00:54:49;10.43;;;5.33;;
19131;SDS011;9698;51.976;7.570;2023-08-31T00:57:19;11.07;;;4.60;;
19131;SDS011;9698;51.976;7.570;2023-08-31T00:59:47;8.07;;;4.17;;
19131;SDS011;9698;51.976;7.570;2023-08-31T01:02:16;14.80;;;5.27;;
19131;SDS011;9698;51.976;7.570;2023-08-31T01:04:48;7.00;;;3.80;;
19131;SDS011;9698;51.976;7.570;2023-08-31T01:07:23;17.33;;;6.30;;
19131;SDS011;9698;51.976;7.570;2023-08-31T01:10:02;9.37;;;4.83;;
19131;SDS011;9698;51.976;7.570;2023-08-31T01:12:39;12.40;;;4.93;;
19131;SDS011;9698;51.976;7.570;2023-08-31T01:15:17;12.63;;;6.00;;
19131;SDS011;9698;51.976;7.570;2023-08-31T01:17:47;17.07;;;6.63;;
19131;SDS011;9698;51.976;7.570;2023-08-31T01:20:17;13.10;;;5.13;;
19131;SDS011;9698;51.976;7.570;2023-08-31T01:22:58;7.30;;;4.03;;
19131;SDS011;9698;51.976;7.570;2023-08-31T01:25:29;20.00;;;7.27;;
19131;SDS011;9698;51.976;7.570;2023-08-31T01:27:59;8.20;;;4.50;;
19131;SDS011;9698;51.976;7.570;2023-08-31T01:30:29;20.97;;;8.33;;
19131;SDS011;9698;51.976;7.570;2023-08-31T01:32:57;9.23;;;4.77;;
19131;SDS011;9698;51.976;7.570;2023-08-31T01:35:26;14.23;;;6.57;;
19131;SDS011;9698;51.976;7.570;2023-08-31T01:37:57;7.77;;;3.70;;
19131;SDS011;9698;51.976;7.570;2023-08-31T01:40:29;37.07;;;8.70;;
19131;SDS011;9698;51.976;7.570;2023-08-31T01:43:01;26.93;;;6.97;;
19131;SDS011;9698;51.976;7.570;2023-08-31T01:45:29;42.53;;;9.90;;
19131;SDS011;9698;51.976;7.570;2023-08-31T01:47:58;50.13;;;10.53;;
19131;SDS011;9698;51.976;7.570;2023-08-31T01:50:25;61.57;;;12.73;;
19131;SDS011;9698;51.976;7.570;2023-08-31T01:52:53;21.53;;;5.63;;
19131;SDS011;9698;51.976;7.570;2023-08-31T01:55:22;58.03;;;12.23;;
19131;SDS011;9698;51.976;7.570;2023-08-31T01:57:49;50.50;;;11.83;;
19131;SDS011;9698;51.976;7.570;2023-08-31T02:00:17;47.63;;;11.03;;
19131;SDS011;9698;51.976;7.570;2023-08-31T02:02:45;28.37;;;7.53;;
19131;SDS011;9698;51.976;7.570;2023-08-31T02:05:13;12.93;;;5.13;;
19131;SDS011;9698;51.976;7.570;2023-08-31T02:07:41;19.43;;;5.83;;
19131;SDS011;9698;51.976;7.570;2023-08-31T02:10:09;39.77;;;9.60;;
19131;SDS011;9698;51.976;7.570;2023-08-31T02:12:37;24.03;;;6.27;;
19131;SDS011;9698;51.976;7.570;2023-08-31T02:15:05;11.33;;;4.97;;
19131;SDS011;9698;51.976;7.570;2023-08-31T02:17:33;5.83;;;5.00;;
19131;SDS011;9698;51.976;7.570;2023-08-31T02:20:01;6.40;;;3.80;;
19131;SDS011;9698;51.976;7.570;2023-08-31T02:22:33;15.77;;;6.83;;
19131;SDS011;9698;51.976;7.570;2023-08-31T02:25:01;10.10;;;5.43;;
19131;SDS011;9698;51.976;7.570;2023-08-31T02:27:30;8.77;;;5.37;;
19131;SDS011;9698;51.976;7.570;2023-08-31T02:29:57;5.43;;;4.60;;
19131;SDS011;9698;51.976;7.570;2023-08-31T02:32:25;9.53;;;5.40;;
19131;SDS011;9698;51.976;7.570;2023-08-31T02:34:53;9.23;;;4.90;;
19131;SDS011;9698;51.976;7.570;2023-08-31T02:37:21;6.20;;;4.10;;
19131;SDS011;9698;51.976;7.570;2023-08-31T02:39:49;8.30;;;4.80;;
19131;SDS011;9698;51.976;7.570;2023-08-31T02:42:17;10.53;;;4.80;;
19131;SDS011;9698;51.976;7.570;2023-08-31T02:44:45;7.87;;;4.83;;
19131;SDS011;9698;51.976;7.570;2023-08-31T02:47:13;4.93;;;4.10;;
19131;SDS011;9698;51.976;7.570;2023-08-31T02:49:40;5.50;;;3.87;;
19131;SDS011;9698;51.976;7.570;2023-08-31T02:52:08;6.40;;;4.60;;
19131;SDS011;9698;51.976;7.570;2023-08-31T02:54:36;7.80;;;4.20;;
19131;SDS011;9698;51.976;7.570;2023-08-31T02:57:04;7.60;;;3.80;;
19131;SDS011;9698;51.976;7.570;2023-08-31T02:59:32;7.57;;;5.70;;
19131;SDS011;9698;51.976;7.570;2023-08-31T03:02:02;6.57;;;3.27;;
19131;SDS011;9698;51.976;7.570;2023-08-31T03:04:31;7.60;;;5.03;;
19131;SDS011;9698;51.976;7.570;2023-08-31T03:06:59;5.83;;;3.40;;
19131;SDS011;9698;51.976;7.570;2023-08-31T03:09:29;5.23;;;4.70;;
19131;SDS011;9698;51.976;7.570;2023-08-31T03:11:57;10.63;;;5.10;;
19131;SDS011;9698;51.976;7.570;2023-08-31T03:14:25;5.87;;;4.57;;
19131;SDS011;9698;51.976;7.570;2023-08-31T03:16:53;7.27;;;4.20;;
19131;SDS011;9698;51.976;7.570;2023-08-31T03:19:20;8.03;;;5.50;;
19131;SDS011;9698;51.976;7.570;2023-08-31T03:21:49;6.23;;;4.67;;
19131;SDS011;9698;51.976;7.570;2023-08-31T03:24:17;7.30;;;5.30;;
19131;SDS011;9698;51.976;7.570;2023-08-31T03:26:46;6.57;;;5.00;;
19131;SDS011;9698;51.976;7.570;2023-08-31T03:29:32;5.97;;;4.73;;
19131;SDS011;9698;51.976;7.570;2023-08-31T03:32:00;6.57;;;4.83;;
19131;SDS011;9698;51.976;7.570;2023-08-31T03:34:29;6.77;;;4.80;;
19131;SDS011;9698;51.976;7.570;2023-08-31T03:36:56;7.77;;;5.50;;
19131;SDS011;9698;51.976;7.570;2023-08-31T03:39:25;9.40;;;5.30;;
19131;SDS011;9698;51.976;7.570;2023-08-31T03:41:52;9.03;;;5.70;;
19131;SDS011;9698;51.976;7.570;2023-08-31T03:44:20;7.53;;;5.80;;
19131;SDS011;9698;51.976;7.570;2023-08-31T03:46:48;7.17;;;5.43;;
19131;SDS011;9698;51.976;7.570;2023-08-31T03:49:16;8.30;;;6.67;;
19131;SDS011;9698;51.976;7.570;2023-08-31T03:51:44;8.30;;;5.67;;
19131;SDS011;9698;51.976;7.570;2023-08-31T03:54:12;6.83;;;5.57;;
19131;SDS011;9698;51.976;7.570;2023-08-31T03:56:40;8.20;;;6.57;;
19131;SDS011;9698;51.976;7.570;2023-08-31T03:59:08;8.33;;;5.83;;
19131;SDS011;9698;51.976;7.570;2023-08-31T04:01:35;6.43;;;5.77;;
19131;SDS011;9698;51.976;7.570;2023-08-31T04:04:04;8.60;;;6.07;;
19131;SDS011;9698;51.976;7.570;2023-08-31T04:06:32;6.63;;;5.93;;
19131;SDS011;9698;51.976;7.570;2023-08-31T04:08:59;9.67;;;6.17;;
19131;SDS011;9698;51.976;7.570;2023-08-31T04:11:27;6.63;;;6.00;;
19131;SDS011;9698;51.976;7.570;2023-08-31T04:13:55;10.37;;;6.97;;
19131;SDS011;9698;51.976;7.570;2023-08-31T04:16:23;8.77;;;6.30;;
19131;SDS011;9698;51.976;7.570;2023-08-31T04:18:51;11.57;;;7.77;;
19131;SDS011;9698;51.976;7.570;2023-08-31T04:21:18;9.60;;;7.03;;
19131;SDS011;9698;51.976;7.570;2023-08-31T04:23:46;7.47;;;6.70;;
19131;SDS011;9698;51.976;7.570;2023-08-31T04:26:14;9.93;;;7.00;;
19131;SDS011;9698;51.976;7.570;2023-08-31T04:28:43;8.57;;;7.07;;
19131;SDS011;9698;51.976;7.570;2023-08-31T04:31:11;7.97;;;6.73;;
19131;SDS011;9698;51.976;7.570;2023-08-31T04:33:39;11.47;;;7.23;;
19131;SDS011;9698;51.976;7.570;2023-08-31T04:36:07;9.10;;;7.90;;
19131;SDS011;9698;51.976;7.570;2023-08-31T04:38:35;9.27;;;7.33;;
19131;SDS011;9698;51.976;7.570;2023-08-31T04:41:04;8.37;;;7.57;;
19131;SDS011;9698;51.976;7.570;2023-08-31T04:43:32;10.30;;;8.03;;
19131;SDS011;9698;51.976;7.570;2023-08-31T04:46:00;10.23;;;8.57;;
19131;SDS011;9698;51.976;7.570;2023-08-31T04:48:30;9.87;;;8.13;;
19131;SDS011;9698;51.976;7.570;2023-08-31T04:50:58;12.60;;;8.33;;
19131;SDS011;9698;51.976;7.570;2023-08-31T04:53:26;10.00;;;9.00;;
19131;SDS011;9698;51.976;7.570;2023-08-31T04:55:54;10.33;;;8.43;;
19131;SDS011;9698;51.976;7.570;2023-08-31T04:58:21;9.53;;;8.63;;
19131;SDS011;9698;51.976;7.570;2023-08-31T05:00:51;12.07;;;9.10;;
19131;SDS011;9698;51.976;7.570;2023-08-31T05:03:19;11.73;;;9.23;;
19131;SDS011;9698;51.976;7.570;2023-08-31T05:05:47;10.60;;;9.60;;
19131;SDS011;9698;51.976;7.570;2023-08-31T05:08:15;10.73;;;9.23;;
19131;SDS011;9698;51.976;7.570;2023-08-31T05:10:43;13.33;;;10.00;;
19131;SDS011;9698;51.976;7.570;2023-08-31T05:13:12;12.87;;;10.47;;
19131;SDS011;9698;51.976;7.570;2023-08-31T05:15:40;14.23;;;10.50;;
19131;SDS011;9698;51.976;7.570;2023-08-31T05:18:08;12.43;;;10.63;;
19131;SDS011;9698;51.976;7.570;2023-08-31T05:20:36;12.83;;;10.60;;
19131;SDS011;9698;51.976;7.570;2023-08-31T05:23:04;12.47;;;11.07;;
19131;SDS011;9698;51.976;7.570;2023-08-31T05:25:32;12.07;;;10.87;;
19131;SDS011;9698;51.976;7.570;2023-08-31T05:28:00;13.23;;;10.83;;
19131;SDS011;9698;51.976;7.570;2023-08-31T05:30:27;12.90;;;11.27;;
19131;SDS011;9698;51.976;7.570;2023-08-31T05:33:13;13.20;;;11.70;;
19131;SDS011;9698;51.976;7.570;2023-08-31T05:35:42;14.70;;;11.20;;
19131;SDS011;9698;51.976;7.570;2023-08-31T05:38:10;13.93;;;11.07;;
19131;SDS011;9698;51.976;7.570;2023-08-31T05:40:38;12.70;;;11.40;;
19131;SDS011;9698;51.976;7.570;2023-08-31T05:43:11;12.90;;;11.50;;
19131;SDS011;9698;51.976;7.570;2023-08-31T05:45:40;12.00;;;10.80;;
19131;SDS011;9698;51.976;7.570;2023-08-31T05:48:08;15.03;;;11.83;;
19131;SDS011;9698;51.976;7.570;2023-08-31T05:50:36;14.30;;;11.07;;
19131;SDS011;9698;51.976;7.570;2023-08-31T05:53:22;11.47;;;10.37;;
19131;SDS011;9698;51.976;7.570;2023-08-31T05:55:50;12.93;;;11.57;;
19131;SDS011;9698;51.976;7.570;2023-08-31T06:01:05;14.10;;;12.70;;
19131;SDS011;9698;51.976;7.570;2023-08-31T06:03:34;14.30;;;11.43;;
19131;SDS011;9698;51.976;7.570;2023-08-31T06:06:02;15.23;;;12.17;;
19131;SDS011;9698;51.976;7.570;2023-08-31T06:08:31;13.53;;;12.10;;
19131;SDS011;9698;51.976;7.570;2023-08-31T06:10:59;13.63;;;12.27;;
19131;SDS011;9698;51.976;7.570;2023-08-31T06:13:27;13.40;;;12.07;;
19131;SDS011;9698;51.976;7.570;2023-08-31T06:15:55;12.80;;;11.53;;
19131;SDS011;9698;51.976;7.570;2023-08-31T06:18:24;15.70;;;12.70;;
19131;SDS011;9698;51.976;7.570;2023-08-31T06:20:52;15.40;;;13.27;;
19131;SDS011;9698;51.976;7.570;2023-08-31T06:23:19;17.27;;;14.00;;
19131;SDS011;9698;51.976;7.570;2023-08-31T06:25:47;15.40;;;13.73;;
19131;SDS011;9698;51.976;7.570;2023-08-31T06:28:15;16.27;;;14.57;;
19131;SDS011;9698;51.976;7.570;2023-08-31T06:30:43;16.63;;;14.60;;
19131;SDS011;9698;51.976;7.570;2023-08-31T06:33:12;16.00;;;14.37;;
19131;SDS011;9698;51.976;7.570;2023-08-31T06:35:41;19.20;;;15.43;;
19131;SDS011;9698;51.976;7.570;2023-08-31T06:38:09;17.03;;;15.10;;
19131;SDS011;9698;51.976;7.570;2023-08-31T06:40:37;18.60;;;16.07;;
19131;SDS011;9698;51.976;7.570;2023-08-31T06:43:05;18.47;;;16.47;;
19131;SDS011;9698;51.976;7.570;2023-08-31T06:45:52;17.13;;;10.97;;
19131;SDS011;9698;51.976;7.570;2023-08-31T06:51:08;14.10;;;12.70;;
19131;SDS011;9698;51.976;7.570;2023-08-31T06:53:37;18.13;;;14.30;;
19131;SDS011;9698;51.976;7.570;2023-08-31T06:56:04;14.30;;;12.87;;
19131;SDS011;9698;51.976;7.570;2023-08-31T06:58:32;13.83;;;12.50;;
19131;SDS011;9698;51.976;7.570;2023-08-31T07:01:00;13.10;;;11.23;;
19131;SDS011;9698;51.976;7.570;2023-08-31T07:03:48;12.97;;;10.87;;
19131;SDS011;9698;51.976;7.570;2023-08-31T07:06:20;14.23;;;12.57;;
19131;SDS011;9698;51.976;7.570;2023-08-31T07:08:51;13.77;;;12.13;;
19131;SDS011;9698;51.976;7.570;2023-08-31T07:11:19;11.63;;;10.33;;
19131;SDS011;9698;51.976;7.570;2023-08-31T07:13:47;11.60;;;10.50;;
19131;SDS011;9698;51.976;7.570;2023-08-31T07:16:16;11.90;;;10.70;;
19131;SDS011;9698;51.976;7.570;2023-08-31T07:18:44;10.20;;;8.93;;
19131;SDS011;9698;51.976;7.570;2023-08-31T07:21:12;11.83;;;10.33;;
19131;SDS011;9698;51.976;7.570;2023-08-31T07:23:40;10.17;;;9.17;;
19131;SDS011;9698;51.976;7.570;2023-08-31T07:26:08;11.90;;;10.70;;
19131;SDS011;9698;51.976;7.570;2023-08-31T07:28:38;10.37;;;9.33;;
19131;SDS011;9698;51.976;7.570;2023-08-31T07:31:12;11.60;;;10.37;;
19131;SDS011;9698;51.976;7.570;2023-08-31T07:33:46;11.23;;;10.23;;
19131;SDS011;9698;51.976;7.570;2023-08-31T07:36:20;13.60;;;10.43;;
19131;SDS011;9698;51.976;7.570;2023-08-31T07:38:52;14.90;;;10.53;;
19131;SDS011;9698;51.976;7.570;2023-08-31T07:41:22;11.63;;;10.07;;
19131;SDS011;9698;51.976;7.570;2023-08-31T07:43:50;10.67;;;9.57;;
19131;SDS011;9698;51.976;7.570;2023-08-31T07:46:30;10.63;;;9.63;;
19131;SDS011;9698;51.976;7.570;2023-08-31T07:48:59;10.67;;;9.50;;
19131;SDS011;9698;51.976;7.570;2023-08-31T07:51:30;11.17;;;9.50;;
19131;SDS011;9698;51.976;7.570;2023-08-31T07:53:59;9.80;;;8.93;;
19131;SDS011;9698;51.976;7.570;2023-08-31T07:56:29;10.57;;;9.47;;
19131;SDS011;9698;51.976;7.570;2023-08-31T07:58:57;11.43;;;9.23;;
19131;SDS011;9698;51.976;7.570;2023-08-31T08:01:25;10.47;;;9.43;;
19131;SDS011;9698;51.976;7.570;2023-08-31T08:03:55;10.87;;;9.23;;
19131;SDS011;9698;51.976;7.570;2023-08-31T08:06:24;9.23;;;8.33;;
19131;SDS011;9698;51.976;7.570;2023-08-31T08:08:57;9.53;;;8.63;;
19131;SDS011;9698;51.976;7.570;2023-08-31T08:11:25;10.13;;;8.77;;
19131;SDS011;9698;51.976;7.570;2023-08-31T08:13:53;10.43;;;9.43;;
19131;SDS011;9698;51.976;7.570;2023-08-31T08:16:20;9.10;;;8.20;;
19131;SDS011;9698;51.976;7.570;2023-08-31T08:18:49;9.63;;;8.73;;
19131;SDS011;9698;51.976;7.570;2023-08-31T08:21:38;9.73;;;8.47;;
19131;SDS011;9698;51.976;7.570;2023-08-31T08:24:07;9.73;;;8.07;;
19131;SDS011;9698;51.976;7.570;2023-08-31T08:26:36;8.47;;;7.53;;
19131;SDS011;9698;51.976;7.570;2023-08-31T08:29:04;8.20;;;7.40;;
19131;SDS011;9698;51.976;7.570;2023-08-31T08:31:31;8.87;;;8.07;;
19131;SDS011;9698;51.976;7.570;2023-08-31T08:34:00;6.93;;;6.33;;
19131;SDS011;9698;51.976;7.570;2023-08-31T08:36:29;7.40;;;6.57;;
19131;SDS011;9698;51.976;7.570;2023-08-31T08:38:57;7.97;;;7.27;;
19131;SDS011;9698;51.976;7.570;2023-08-31T08:41:25;9.20;;;6.90;;
19131;SDS011;9698;51.976;7.570;2023-08-31T08:43:55;7.60;;;6.80;;
19131;SDS011;9698;51.976;7.570;2023-08-31T08:46:28;7.40;;;6.00;;
19131;SDS011;9698;51.976;7.570;2023-08-31T08:48:58;7.47;;;6.77;;
19131;SDS011;9698;51.976;7.570;2023-08-31T08:51:29;6.33;;;5.73;;
19131;SDS011;9698;51.976;7.570;2023-08-31T08:53:58;6.10;;;5.53;;
19131;SDS011;9698;51.976;7.570;2023-08-31T08:56:26;8.77;;;6.10;;
19131;SDS011;9698;51.976;7.570;2023-08-31T08:58:54;6.43;;;5.70;;
19131;SDS011;9698;51.976;7.570;2023-08-31T09:01:23;6.23;;;5.63;;
19131;SDS011;9698;51.976;7.570;2023-08-31T09:03:54;6.47;;;5.57;;
19131;SDS011;9698;51.976;7.570;2023-08-31T09:06:46;8.23;;;5.50;;
19131;SDS011;9698;51.976;7.570;2023-08-31T09:09:18;5.53;;;4.63;;
19131;SDS011;9698;51.976;7.570;2023-08-31T09:11:49;5.97;;;5.30;;
19131;SDS011;9698;51.976;7.570;2023-08-31T09:14:20;6.40;;;4.97;;
19131;SDS011;9698;51.976;7.570;2023-08-31T09:16:49;6.87;;;4.73;;
19131;SDS011;9698;51.976;7.570;2023-08-31T09:19:18;6.03;;;4.63;;
19131;SDS011;9698;51.976;7.570;2023-08-31T09:21:47;6.77;;;4.60;;
19131;SDS011;9698;51.976;7.570;2023-08-31T09:24:17;5.17;;;4.60;;
19131;SDS011;9698;51.976;7.570;2023-08-31T09:26:54;5.67;;;4.37;;
19131;SDS011;9698;51.976;7.570;2023-08-31T09:29:29;4.83;;;4.13;;
19131;SDS011;9698;51.976;7.570;2023-08-31T09:31:59;5.33;;;3.70;;
19131;SDS011;9698;51.976;7.570;2023-08-31T09:37:17;4.60;;;3.60;;
19131;SDS011;9698;51.976;7.570;2023-08-31T09:39:47;6.07;;;3.67;;
19131;SDS011;9698;51.976;7.570;2023-08-31T09:42:17;4.00;;;3.50;;
19131;SDS011;9698;51.976;7.570;2023-08-31T09:44:47;6.30;;;3.60;;
19131;SDS011;9698;51.976;7.570;2023-08-31T09:47:18;4.23;;;3.50;;
19131;SDS011;9698;51.976;7.570;2023-08-31T09:49:47;7.10;;;3.43;;
19131;SDS011;9698;51.976;7.570;2023-08-31T09:52:15;5.17;;;3.33;;
19131;SDS011;9698;51.976;7.570;2023-08-31T09:54:45;3.57;;;2.73;;
19131;SDS011;9698;51.976;7.570;2023-08-31T09:57:16;6.23;;;3.07;;
19131;SDS011;9698;51.976;7.570;2023-08-31T09:59:55;3.73;;;2.70;;
19131;SDS011;9698;51.976;7.570;2023-08-31T10:02:23;3.20;;;2.90;;
19131;SDS011;9698;51.976;7.570;2023-08-31T10:04:52;5.07;;;2.70;;
19131;SDS011;9698;51.976;7.570;2023-08-31T10:07:40;3.17;;;2.53;;
19131;SDS011;9698;51.976;7.570;2023-08-31T10:10:10;5.00;;;2.60;;
19131;SDS011;9698;51.976;7.570;2023-08-31T10:12:39;14.23;;;9.43;;
19131;SDS011;9698;51.976;7.570;2023-08-31T10:15:08;6.93;;;4.57;;
19131;SDS011;9698;51.976;7.570;2023-08-31T10:17:37;49.70;;;31.70;;
19131;SDS011;9698;51.976;7.570;2023-08-31T10:20:08;17.43;;;11.90;;
19131;SDS011;9698;51.976;7.570;2023-08-31T10:22:38;8.13;;;6.17;;
19131;SDS011;9698;51.976;7.570;2023-08-31T10:25:07;15.10;;;7.40;;
19131;SDS011;9698;51.976;7.570;2023-08-31T10:27:38;10.87;;;4.80;;
19131;SDS011;9698;51.976;7.570;2023-08-31T10:30:14;7.40;;;4.50;;
19131;SDS011;9698;51.976;7.570;2023-08-31T10:33:03;5.17;;;2.90;;
19131;SDS011;9698;51.976;7.570;2023-08-31T10:35:49;5.27;;;3.20;;
19131;SDS011;9698;51.976;7.570;2023-08-31T10:41:22;4.30;;;2.20;;
19131;SDS011;9698;51.976;7.570;2023-08-31T10:43:52;3.73;;;2.10;;
19131;SDS011;9698;51.976;7.570;2023-08-31T10:46:32;3.23;;;1.80;;
19131;SDS011;9698;51.976;7.570;2023-08-31T10:49:12;2.93;;;1.67;;
19131;SDS011;9698;51.976;7.570;2023-08-31T10:51:42;4.60;;;1.53;;
19131;SDS011;9698;51.976;7.570;2023-08-31T10:54:11;5.77;;;1.70;;
19131;SDS011;9698;51.976;7.570;2023-08-31T10:56:52;4.00;;;1.60;;
19131;SDS011;9698;51.976;7.570;2023-08-31T10:59:21;2.43;;;1.50;;
19131;SDS011;9698;51.976;7.570;2023-08-31T11:01:54;2.53;;;1.53;;
19131;SDS011;9698;51.976;7.570;2023-08-31T11:04:24;5.53;;;1.70;;
19131;SDS011;9698;51.976;7.570;2023-08-31T11:07:13;2.93;;;1.63;;
19131;SDS011;9698;51.976;7.570;2023-08-31T11:09:42;2.67;;;1.63;;
19131;SDS011;9698;51.976;7.570;2023-08-31T11:12:12;2.27;;;1.50;;
19131;SDS011;9698;51.976;7.570;2023-08-31T11:14:40;2.20;;;1.50;;
19131;SDS011;9698;51.976;7.570;2023-08-31T11:17:09;1.60;;;1.40;;
19131;SDS011;9698;51.976;7.570;2023-08-31T11:19:39;2.33;;;1.60;;
19131;SDS011;9698;51.976;7.570;2023-08-31T11:22:07;2.93;;;1.90;;
19131;SDS011;9698;51.976;7.570;2023-08-31T11:24:37;4.07;;;1.50;;
19131;SDS011;9698;51.976;7.570;2023-08-31T11:27:08;3.40;;;1.50;;
19131;SDS011;9698;51.976;7.570;2023-08-31T11:29:43;2.40;;;1.67;;
19131;SDS011;9698;51.976;7.570;2023-08-31T11:32:11;3.73;;;1.60;;
19131;SDS011;9698;51.976;7.570;2023-08-31T11:34:40;3.03;;;1.40;;
19131;SDS011;9698;51.976;7.570;2023-08-31T11:37:09;3.10;;;1.70;;
19131;SDS011;9698;51.976;7.570;2023-08-31T11:39:42;4.23;;;1.73;;
19131;SDS011;9698;51.976;7.570;2023-08-31T11:42:16;3.67;;;1.70;;
19131;SDS011;9698;51.976;7.570;2023-08-31T11:44:46;2.43;;;1.53;;
19131;SDS011;9698;51.976;7.570;2023-08-31T11:47:15;2.00;;;1.57;;
19131;SDS011;9698;51.976;7.570;2023-08-31T11:49:48;3.63;;;1.60;;
19131;SDS011;9698;51.976;7.570;2023-08-31T11:52:18;2.73;;;1.33;;
19131;SDS011;9698;51.976;7.570;2023-08-31T11:54:47;3.67;;;1.70;;
19131;SDS011;9698;51.976;7.570;2023-08-31T11:57:20;2.83;;;1.77;;
19131;SDS011;9698;51.976;7.570;2023-08-31T12:02:39;3.23;;;1.60;;
19131;SDS011;9698;51.976;7.570;2023-08-31T12:05:07;3.70;;;2.00;;
19131;SDS011;9698;51.976;7.570;2023-08-31T12:07:39;4.93;;;1.97;;
19131;SDS011;9698;51.976;7.570;2023-08-31T12:10:09;2.97;;;2.27;;
19131;SDS011;9698;51.976;7.570;2023-08-31T12:12:41;3.63;;;1.60;;
19131;SDS011;9698;51.976;7.570;2023-08-31T12:15:10;4.30;;;2.00;;
19131;SDS011;9698;51.976;7.570;2023-08-31T12:17:38;4.07;;;2.37;;
19131;SDS011;9698;51.976;7.570;2023-08-31T12:20:07;3.00;;;2.00;;
19131;SDS011;9698;51.976;7.570;2023-08-31T12:22:38;5.63;;;2.57;;
19131;SDS011;9698;51.976;7.570;2023-08-31T12:25:07;4.00;;;2.50;;
19131;SDS011;9698;51.976;7.570;2023-08-31T12:27:35;2.67;;;2.30;;
19131;SDS011;9698;51.976;7.570;2023-08-31T12:30:04;3.03;;;2.37;;
19131;SDS011;9698;51.976;7.570;2023-08-31T12:32:35;4.17;;;2.53;;
19131;SDS011;9698;51.976;7.570;2023-08-31T12:35:03;4.37;;;2.80;;
19131;SDS011;9698;51.976;7.570;2023-08-31T12:37:33;4.83;;;3.03;;
19131;SDS011;9698;51.976;7.570;2023-08-31T12:40:01;4.67;;;2.60;;
19131;SDS011;9698;51.976;7.570;2023-08-31T12:42:33;2.63;;;2.13;;
19131;SDS011;9698;51.976;7.570;2023-08-31T12:45:01;2.33;;;1.80;;
19131;SDS011;9698;51.976;7.570;2023-08-31T12:47:32;2.03;;;1.70;;
19131;SDS011;9698;51.976;7.570;2023-08-31T12:50:01;1.70;;;1.60;;
19131;SDS011;9698;51.976;7.570;2023-08-31T12:52:29;2.73;;;1.73;;
19131;SDS011;9698;51.976;7.570;2023-08-31T12:54:57;3.37;;;1.70;;
19131;SDS011;9698;51.976;7.570;2023-08-31T12:57:25;3.33;;;1.97;;
19131;SDS011;9698;51.976;7.570;2023-08-31T12:59:53;2.40;;;1.87;;
19131;SDS011;9698;51.976;7.570;2023-08-31T13:02:21;4.50;;;2.03;;
19131;SDS011;9698;51.976;7.570;2023-08-31T13:04:49;3.83;;;2.00;;
19131;SDS011;9698;51.976;7.570;2023-08-31T13:07:18;3.00;;;1.50;;
19131;SDS011;9698;51.976;7.570;2023-08-31T13:09:45;10.20;;;2.57;;
19131;SDS011;9698;51.976;7.570;2023-08-31T13:12:15;4.43;;;3.17;;
19131;SDS011;9698;51.976;7.570;2023-08-31T13:14:44;5.57;;;3.03;;
19131;SDS011;9698;51.976;7.570;2023-08-31T13:17:12;4.77;;;2.20;;
19131;SDS011;9698;51.976;7.570;2023-08-31T13:19:40;3.80;;;3.10;;
19131;SDS011;9698;51.976;7.570;2023-08-31T13:22:08;3.50;;;2.07;;
19131;SDS011;9698;51.976;7.570;2023-08-31T13:24:53;5.03;;;2.10;;
19131;SDS011;9698;51.976;7.570;2023-08-31T13:27:23;4.27;;;3.00;;
19131;SDS011;9698;51.976;7.570;2023-08-31T13:29:51;2.87;;;1.97;;
19131;SDS011;9698;51.976;7.570;2023-08-31T13:32:20;4.20;;;2.70;;
19131;SDS011;9698;51.976;7.570;2023-08-31T13:34:48;4.93;;;2.20;;
19131;SDS011;9698;51.976;7.570;2023-08-31T13:37:16;3.73;;;2.87;;
19131;SDS011;9698;51.976;7.570;2023-08-31T13:39:44;7.80;;;3.00;;
19131;SDS011;9698;51.976;7.570;2023-08-31T13:42:12;3.63;;;2.07;;
19131;SDS011;9698;51.976;7.570;2023-08-31T13:44:40;4.43;;;3.10;;
19131;SDS011;9698;51.976;7.570;2023-08-31T13:47:08;3.73;;;2.50;;
19131;SDS011;9698;51.976;7.570;2023-08-31T13:49:37;3.40;;;2.60;;
19131;SDS011;9698;51.976;7.570;2023-08-31T13:52:05;5.00;;;2.63;;
19131;SDS011;9698;51.976;7.570;2023-08-31T13:54:35;2.70;;;2.50;;
19131;SDS011;9698;51.976;7.570;2023-08-31T13:57:04;2.50;;;2.30;;
19131;SDS011;9698;51.976;7.570;2023-08-31T13:59:32;2.90;;;2.60;;
19131;SDS011;9698;51.976;7.570;2023-08-31T14:02:00;3.90;;;2.50;;
19131;SDS011;9698;51.976;7.570;2023-08-31T14:04:30;2.50;;;2.10;;
19131;SDS011;9698;51.976;7.570;2023-08-31T14:06:58;4.60;;;2.13;;
19131;SDS011;9698;51.976;7.570;2023-08-31T14:09:27;4.70;;;3.03;;
19131;SDS011;9698;51.976;7.570;2023-08-31T14:11:55;5.50;;;2.90;;
19131;SDS011;9698;51.976;7.570;2023-08-31T14:14:23;4.43;;;2.97;;
19131;SDS011;9698;51.976;7.570;2023-08-31T14:16:52;4.50;;;3.57;;
19131;SDS011;9698;51.976;7.570;2023-08-31T14:19:20;4.70;;;2.80;;
19131;SDS011;9698;51.976;7.570;2023-08-31T14:21:48;5.07;;;3.07;;
19131;SDS011;9698;51.976;7.570;2023-08-31T14:24:34;5.50;;;2.90;;
19131;SDS011;9698;51.976;7.570;2023-08-31T14:27:04;3.47;;;2.80;;
19131;SDS011;9698;51.976;7.570;2023-08-31T14:29:32;3.67;;;2.40;;
19131;SDS011;9698;51.976;7.570;2023-08-31T14:32:01;3.60;;;2.43;;
19131;SDS011;9698;51.976;7.570;2023-08-31T14:34:30;3.17;;;2.27;;
19131;SDS011;9698;51.976;7.570;2023-08-31T14:36:58;4.50;;;2.70;;
19131;SDS011;9698;51.976;7.570;2023-08-31T14:39:27;4.00;;;2.23;;
19131;SDS011;9698;51.976;7.570;2023-08-31T14:41:56;5.13;;;2.70;;
19131;SDS011;9698;51.976;7.570;2023-08-31T14:44:25;3.67;;;2.93;;
19131;SDS011;9698;51.976;7.570;2023-08-31T14:46:53;4.80;;;3.10;;
19131;SDS011;9698;51.976;7.570;2023-08-31T14:49:22;5.83;;;3.33;;
19131;SDS011;9698;51.976;7.570;2023-08-31T14:51:52;3.90;;;2.77;;
19131;SDS011;9698;51.976;7.570;2023-08-31T14:54:21;4.90;;;3.67;;
19131;SDS011;9698;51.976;7.570;2023-08-31T14:56:49;6.20;;;3.37;;
19131;SDS011;9698;51.976;7.570;2023-08-31T14:59:17;4.30;;;3.40;;
19131;SDS011;9698;51.976;7.570;2023-08-31T15:01:45;4.40;;;2.87;;
19131;SDS011;9698;51.976;7.570;2023-08-31T15:04:13;6.50;;;3.50;;
19131;SDS011;9698;51.976;7.570;2023-08-31T15:06:41;5.70;;;2.93;;
19131;SDS011;9698;51.976;7.570;2023-08-31T15:09:10;4.83;;;3.10;;
19131;SDS011;9698;51.976;7.570;2023-08-31T15:11:39;9.93;;;4.03;;
19131;SDS011;9698;51.976;7.570;2023-08-31T15:14:08;5.43;;;3.30;;
19131;SDS011;9698;51.976;7.570;2023-08-31T15:16:36;3.67;;;3.00;;
19131;SDS011;9698;51.976;7.570;2023-08-31T15:19:05;9.07;;;3.33;;
19131;SDS011;9698;51.976;7.570;2023-08-31T15:21:33;5.90;;;3.47;;